Time;durP1;ratioP1;P1;durP2;ratioP2;P2;SDS_P1;SDS_P2;PMS_P1;PMS_P2;Temp;Humidity;BMP_temperature;BMP_pressure;BME280_temperature;BME280_humidity;BME280_pressure;Samples;Min_cycle;Max_cycle;Signal;HPM_P1;HPM_P2
2023/02/01 07:12:44;;;;;;;;;3.00;1.50;;;;;17.56;42.64;102495.56;5112022;27;45852;-72
2023/02/01 07:15:10;;;;;;;;;4.25;2.50;;;;;17.92;43.16;102493.56;5108701;27;45570;-72
2023/02/01 07:17:35;;;;;;;;;4.00;4.00;;;;;18.47;43.61;102502.03;5115982;27;45541;-72
2023/02/01 07:20:01;;;;;;;;;3.25;2.50;;;;;19.12;43.81;102499.94;5108600;27;45411;-72
2023/02/01 07:22:26;;;;;;;;;4.75;1.75;;;;;19.79;43.59;102495.72;5096454;27;46914;-70
2023/02/01 07:24:52;;;;;;;;;2.00;1.50;;;;;20.37;43.55;102502.72;5096354;27;45625;-71
2023/02/01 07:27:17;;;;;;;;;4.25;1.50;;;;;21.03;43.06;102526.13;5107433;27;47573;-71
2023/02/01 07:29:42;;;;;;;;;3.00;3.00;;;;;21.53;42.98;102517.19;5102906;27;45439;-69
2023/02/01 07:32:08;;;;;;;;;4.00;4.00;;;;;22.02;42.52;102525.41;5091633;27;52844;-70
2023/02/01 07:34:33;;;;;;;;;2.25;2.00;;;;;22.45;42.31;102527.53;5102722;27;50660;-72
2023/02/01 07:36:59;;;;;;;;;2.33;2.33;;;;;22.84;42.00;102524.56;5094458;27;45244;-70
2023/02/01 07:39:24;;;;;;;;;2.00;1.00;;;;;23.19;41.31;102528.19;5106285;27;45545;-71
2023/02/01 07:41:50;;;;;;;;;3.00;3.00;;;;;23.50;41.61;102533.00;5113533;27;45810;-73
2023/02/01 07:44:16;;;;;;;;;2.33;2.33;;;;;23.75;40.92;102545.38;5103563;27;45383;-73
2023/02/01 07:46:43;;;;;;;;;1.00;1.00;;;;;23.98;41.05;102548.03;5087821;27;45640;-73
2023/02/01 07:49:08;;;;;;;;;2.00;2.00;;;;;24.16;40.46;102542.09;5101107;27;45536;-73
2023/02/01 07:51:33;;;;;;;;;2.00;2.00;;;;;24.36;40.33;102553.97;5102370;27;45718;-72
2023/02/01 07:53:59;;;;;;;;;2.67;2.67;;;;;24.51;40.03;102559.06;5105298;27;45477;-70
2023/02/01 07:56:25;;;;;;;;;2.00;2.00;;;;;24.63;39.99;102571.59;5098281;27;45641;-72
2023/02/01 07:58:51;;;;;;;;;5.00;2.00;;;;;24.76;39.65;102582.25;5094012;27;45376;-72
2023/02/01 08:01:25;;;;;;;;;2.00;2.00;;;;;24.82;39.52;102579.03;5096245;27;46115;-72
2023/02/01 08:03:52;;;;;;;;;2.00;2.00;;;;;24.96;39.42;102590.56;5099241;27;45559;-72
2023/02/01 08:06:19;;;;;;;;;3.33;2.33;;;;;25.05;39.15;102584.31;5109334;27;46783;-72
2023/02/01 08:08:45;;;;;;;;;3.33;1.67;;;;;25.16;38.97;102579.81;5101224;27;45509;-72
2023/02/01 08:11:10;;;;;;;;;2.00;2.00;;;;;25.25;39.24;102582.59;5103592;27;45583;-72
2023/02/01 08:13:36;;;;;;;;;1.33;1.33;;;;;25.37;38.86;102567.03;5101886;27;45419;-72
2023/02/01 08:16:04;;;;;;;;;3.67;2.00;;;;;25.49;38.75;102575.94;5088975;27;45332;-72
2023/02/01 08:18:29;;;;;;;;;1.00;1.00;;;;;25.58;38.84;102568.00;5102438;27;45641;-72
2023/02/01 08:20:55;;;;;;;;;2.67;2.67;;;;;25.70;38.62;102566.88;5100040;27;46133;-73
2023/02/01 08:23:22;;;;;;;;;3.00;2.00;;;;;25.73;38.17;102558.47;5088773;27;45402;-71
2023/02/01 08:25:47;;;;;;;;;2.00;2.00;;;;;25.82;38.32;102564.91;5092368;27;45579;-71
2023/02/01 08:28:13;;;;;;;;;1.00;1.00;;;;;25.82;38.29;102555.91;5080808;27;45505;-72
2023/02/01 08:30:39;;;;;;;;;2.00;1.33;;;;;25.89;38.19;102557.03;5075049;27;45992;-73
2023/02/01 08:33:08;;;;;;;;;3.00;1.00;;;;;25.87;38.16;102550.91;5080569;27;45471;-73
2023/02/01 08:35:38;;;;;;;;;2.33;2.00;;;;;25.92;38.01;102560.34;5073364;27;45514;-73
2023/02/01 08:38:04;;;;;;;;;3.00;0.00;;;;;25.94;37.69;102559.34;5073996;27;46655;-73
2023/02/01 08:40:30;;;;;;;;;3.00;1.33;;;;;25.94;37.98;102559.34;5085325;27;45529;-72
2023/02/01 08:42:55;;;;;;;;;1.67;1.00;;;;;25.94;37.87;102557.47;5081224;27;45511;-72
2023/02/01 08:45:27;;;;;;;;;2.00;2.00;;;;;25.97;37.83;102557.22;5082812;27;45386;-73
2023/02/01 08:47:53;;;;;;;;;2.33;2.33;;;;;26.01;37.71;102553.22;5075529;27;45379;-72
2023/02/01 08:50:19;;;;;;;;;1.00;1.00;;;;;26.08;37.37;102547.19;5082740;27;45754;-73
2023/02/01 08:52:45;;;;;;;;;2.00;2.00;;;;;26.14;37.66;102544.75;5086764;27;45370;-74
2023/02/01 08:55:11;;;;;;;;;2.00;1.33;;;;;26.21;37.85;102542.34;5079749;27;45555;-74
2023/02/01 08:57:37;;;;;;;;;2.67;1.67;;;;;26.27;37.70;102540.91;5100468;27;45438;-74
2023/02/01 09:00:05;;;;;;;;;1.00;1.00;;;;;26.38;37.52;102556.25;5090650;27;46258;-74
2023/02/01 09:02:30;;;;;;;;;3.33;2.67;;;;;26.44;37.22;102550.22;5081001;27;45395;-74
2023/02/01 09:04:56;;;;;;;;;1.67;1.33;;;;;26.51;37.51;102547.75;5082939;27;45457;-74
2023/02/01 09:07:21;;;;;;;;;1.00;1.00;;;;;26.60;37.03;102548.78;5085232;27;45651;-75
2023/02/01 09:09:47;;;;;;;;;2.00;2.00;;;;;26.68;37.30;102551.59;5078392;27;46943;-73
2023/02/01 09:12:12;;;;;;;;;1.67;1.67;;;;;26.75;37.09;102543.72;5084190;27;45497;-74
2023/02/01 09:14:38;;;;;;;;;2.00;2.00;;;;;26.78;37.37;102549.75;5094282;27;45488;-72
2023/02/01 09:17:05;;;;;;;;;1.00;1.00;;;;;26.82;37.37;102544.84;5080054;27;45596;-72
2023/02/01 09:19:30;;;;;;;;;2.00;2.00;;;;;26.81;36.58;102545.88;5085538;27;46095;-71
2023/02/01 09:21:56;;;;;;;;;4.33;1.33;;;;;26.80;37.17;102553.16;5089927;27;45300;-72
2023/02/01 09:24:21;;;;;;;;;2.00;1.67;;;;;26.79;36.76;102558.75;5091460;27;45327;-71
2023/02/01 09:26:47;;;;;;;;;0.67;0.67;;;;;26.74;36.61;102559.22;5085558;27;45442;-76
2023/02/01 09:29:12;;;;;;;;;2.00;2.00;;;;;26.72;36.58;102560.38;5075506;27;47013;-75
2023/02/01 09:31:39;;;;;;;;;1.00;1.00;;;;;26.70;36.35;102572.25;5076361;27;45363;-75
2023/02/01 09:34:05;;;;;;;;;3.00;3.00;;;;;26.62;36.84;102563.97;5085594;27;45468;-75
2023/02/01 09:36:31;;;;;;;;;1.00;1.00;;;;;26.73;36.92;102581.16;5074409;27;45763;-73
2023/02/01 09:38:56;;;;;;;;;2.33;2.33;;;;;26.75;36.25;102590.88;5089569;27;49858;-73
2023/02/01 09:41:31;;;;;;;;;3.00;1.00;;;;;26.79;36.14;102597.75;5085022;27;45456;-75
2023/02/01 09:44:31;;;;;;;;;2.33;2.33;;;;;26.82;36.78;102604.78;5084612;27;45431;-74
2023/02/01 09:46:59;;;;;;;;;1.67;1.67;;;;;26.87;36.38;102612.50;5070601;27;45592;-74
2023/02/01 09:49:31;;;;;;;;;5.00;2.67;;;;;26.91;36.52;102616.66;5079715;27;48246;-74
2023/02/01 09:52:01;;;;;;;;;2.00;2.00;;;;;26.93;36.20;102621.00;5076143;27;45766;-73
2023/02/01 09:54:42;;;;;;;;;1.33;1.33;;;;;26.94;36.48;102616.41;5071674;27;45618;-74
2023/02/01 09:57:24;;;;;;;;;2.00;2.00;;;;;26.94;35.91;102625.44;5073792;27;45477;-74
2023/02/01 09:59:57;;;;;;;;;2.00;2.00;;;;;26.98;36.39;102623.28;5084917;27;47510;-75
2023/02/01 10:02:26;;;;;;;;;3.00;1.00;;;;;26.96;35.92;102620.72;5087427;27;45685;-76
2023/02/01 10:04:54;;;;;;;;;2.67;2.67;;;;;26.98;36.32;102625.13;5079961;27;45525;-75
2023/02/01 10:07:46;;;;;;;;;3.00;1.67;;;;;26.98;36.05;102619.69;5080871;27;47220;-73
2023/02/01 10:10:34;;;;;;;;;3.67;1.67;;;;;26.96;36.25;102617.97;5087383;27;45505;-74
2023/02/01 10:13:41;;;;;;;;;3.33;1.00;;;;;26.94;36.37;102625.44;5074655;27;45362;-72
2023/02/01 10:16:35;;;;;;;;;0.67;0.67;;;;;26.92;35.70;102616.53;5074033;27;45515;-73
2023/02/01 10:19:17;;;;;;;;;2.00;2.00;;;;;26.93;35.85;102611.94;5074675;27;45557;-73
2023/02/01 10:22:04;;;;;;;;;1.00;1.00;;;;;26.96;36.22;102609.81;5078367;27;46443;-74
2023/02/01 10:24:40;;;;;;;;;1.67;1.67;;;;;27.01;35.71;102609.34;5071447;27;45472;-76
2023/02/01 10:27:36;;;;;;;;;1.67;1.67;;;;;27.07;35.73;102608.78;5076322;27;45498;-72
2023/02/01 10:30:18;;;;;;;;;2.00;2.00;;;;;27.14;35.80;102611.75;5089198;27;46078;-72
2023/02/01 10:32:43;;;;;;;;;1.00;1.00;;;;;27.16;35.51;102609.75;5083047;27;46149;-72
2023/02/01 10:35:18;;;;;;;;;1.00;1.00;;;;;27.21;36.01;102614.75;5081248;27;45480;-72
2023/02/01 10:37:47;;;;;;;;;2.33;1.00;;;;;27.22;35.48;102611.88;5089900;27;45524;-73
2023/02/01 10:40:13;;;;;;;;;1.00;1.00;;;;;27.24;36.19;102611.72;5081853;27;45665;-73
2023/02/01 10:42:39;;;;;;;;;3.00;2.00;;;;;27.24;35.45;102614.47;5087043;27;45575;-72
2023/02/01 10:45:06;;;;;;;;;1.00;1.00;;;;;27.24;35.51;102619.91;5076763;27;46936;-72
2023/02/01 10:47:31;;;;;;;;;3.33;1.00;;;;;27.21;36.11;102615.63;5096117;27;45483;-72
2023/02/01 10:50:15;;;;;;;;;4.67;1.00;;;;;27.17;35.30;102616.91;5091322;27;45620;-73
2023/02/01 10:53:06;;;;;;;;;3.00;3.00;;;;;27.09;35.79;102597.72;5081621;27;46380;-72
2023/02/01 10:55:40;;;;;;;;;1.33;1.33;;;;;27.09;35.79;102605.88;5084544;27;45764;-72
2023/02/01 10:58:15;;;;;;;;;2.00;2.00;;;;;27.09;35.61;102603.16;5094645;27;45454;-73
2023/02/01 11:01:04;;;;;;;;;2.00;2.00;;;;;27.09;35.38;102601.31;5084133;27;45463;-73
2023/02/01 11:03:52;;;;;;;;;2.00;2.00;;;;;27.12;35.66;102591.97;5094189;27;45703;-74
2023/02/01 11:06:21;;;;;;;;;4.00;4.00;;;;;27.08;35.56;102582.38;5097203;27;45543;-74
2023/02/01 11:08:52;;;;;;;;;3.00;2.00;;;;;27.01;34.92;102576.66;5072886;27;46099;-78
2023/02/01 11:11:19;;;;;;;;;3.00;3.00;;;;;26.92;34.96;102570.19;5082968;27;45503;-79
2023/02/01 11:13:53;;;;;;;;;3.00;1.33;;;;;26.79;34.72;102564.22;5086088;27;45515;-79
2023/02/01 11:16:18;;;;;;;;;2.67;2.33;;;;;26.74;35.03;102563.78;5081446;27;45581;-75
2023/02/01 11:18:44;;;;;;;;;4.00;2.00;;;;;26.58;34.51;102554.38;5094053;27;45454;-76
2023/02/01 11:21:11;;;;;;;;;2.67;2.00;;;;;26.63;34.61;102570.25;5072937;27;45494;-75
2023/02/01 15:28:26;;;;;;;;;2.00;2.00;;;;;19.39;41.22;102456.09;5076263;27;45396;-74
2023/02/01 15:31:00;;;;;;;;;2.25;1.25;;;;;19.72;41.46;102462.94;5071364;27;45710;-74
2023/02/01 15:33:28;;;;;;;;;2.33;2.33;;;;;20.22;41.60;102458.78;5069874;27;45813;-73
2023/02/01 15:36:06;;;;;;;;;3.50;2.00;;;;;20.78;42.14;102457.66;5070001;28;45415;-73
2023/02/01 15:38:40;;;;;;;;;2.00;2.00;;;;;21.38;41.34;102462.47;5068638;27;46310;-73
2023/02/01 15:41:13;;;;;;;;;2.00;2.00;;;;;21.85;41.85;102449.13;5069243;27;45413;-74
2023/02/01 15:43:53;;;;;;;;;2.00;2.00;;;;;22.36;40.79;102466.03;5070952;27;45377;-84
2023/02/01 15:46:35;;;;;;;;;5.00;2.00;;;;;22.73;41.13;102456.91;5075218;27;45557;-74
2023/02/01 15:49:01;;;;;;;;;4.00;4.00;;;;;23.04;40.66;102454.44;5066976;27;46313;-75
2023/02/01 15:51:30;;;;;;;;;3.00;2.67;;;;;23.29;40.29;102456.00;5062476;27;46638;-76
2023/02/01 15:54:02;;;;;;;;;5.33;2.33;;;;;23.55;40.07;102465.72;5063336;27;45439;-75
2023/02/01 15:56:39;;;;;;;;;2.00;2.00;;;;;23.77;39.65;102472.94;5068641;28;45425;-74
2023/02/01 15:59:12;;;;;;;;;4.00;3.00;;;;;23.97;39.41;102475.81;5064314;27;45520;-74
2023/02/01 16:01:38;;;;;;;;;4.00;2.00;;;;;24.15;39.72;102475.28;5066739;28;45550;-75
2023/02/01 16:04:18;;;;;;;;;3.67;2.33;;;;;24.32;39.42;102481.97;5067820;27;45473;-75
2023/02/01 16:06:55;;;;;;;;;3.33;2.33;;;;;24.47;39.02;102475.22;5068911;27;45357;-74
2023/02/01 16:09:24;;;;;;;;;1.67;1.67;;;;;24.63;39.11;102473.88;5071274;27;45979;-75
2023/02/01 16:11:54;;;;;;;;;4.00;3.67;;;;;24.78;38.98;102468.97;5069520;28;45756;-75
2023/02/01 16:14:21;;;;;;;;;2.67;2.67;;;;;24.89;38.74;102481.59;5073087;27;45623;-75
2023/02/01 16:16:47;;;;;;;;;2.33;2.33;;;;;24.97;38.85;102478.22;5072239;27;45447;-75
2023/02/01 16:19:12;;;;;;;;;3.00;3.00;;;;;25.08;38.45;102482.69;5068929;27;47242;-76
2023/02/01 16:21:38;;;;;;;;;3.00;1.33;;;;;25.19;38.22;102479.88;5072184;27;45469;-76
2023/02/01 16:24:03;;;;;;;;;3.33;1.33;;;;;25.27;38.29;102484.63;5070664;27;45857;-79
2023/02/01 16:26:33;;;;;;;;;3.00;3.00;;;;;25.30;38.38;102476.16;5078491;27;45623;-76
2023/02/01 16:29:01;;;;;;;;;4.00;4.00;;;;;25.34;38.00;102477.63;5090034;27;45648;-77
2023/02/01 16:31:32;;;;;;;;;3.67;2.00;;;;;25.36;37.95;102478.34;5089192;27;45450;-71
2023/02/01 16:33:58;;;;;;;;;3.67;2.33;;;;;25.37;37.95;102482.78;5058256;28;45377;-71
2023/02/01 16:36:24;;;;;;;;;4.00;2.00;;;;;25.38;37.88;102473.63;5085169;27;45371;-71
2023/02/01 16:38:52;;;;;;;;;5.00;2.33;;;;;25.45;37.60;102484.81;5084954;27;45391;-73
2023/02/01 16:41:19;;;;;;;;;3.33;2.00;;;;;25.49;37.32;102486.25;5057840;28;45394;-74
2023/02/01 16:43:45;;;;;;;;;1.00;1.00;;;;;25.52;37.70;102496.84;5075109;27;45511;-73
2023/02/01 16:46:24;;;;;;;;;4.67;3.00;;;;;25.57;37.41;102495.56;5075505;27;45745;-72
2023/02/01 16:48:58;;;;;;;;;3.00;2.00;;;;;25.60;37.47;102490.75;5072515;27;46256;-75
2023/02/01 16:51:27;;;;;;;;;4.33;4.00;;;;;25.60;37.38;102498.91;5067942;27;45609;-74
2023/02/01 16:53:52;;;;;;;;;2.00;2.00;;;;;25.62;37.33;102496.88;5056225;28;45398;-78
2023/02/01 16:56:29;;;;;;;;;3.00;3.00;;;;;25.68;37.00;102508.19;5060444;27;45453;-80
2023/02/01 16:58:54;;;;;;;;;3.00;3.00;;;;;25.71;37.27;102506.03;5075774;28;45380;-77
2023/02/01 17:01:20;;;;;;;;;2.33;2.33;;;;;25.73;36.75;102516.78;5064351;28;50613;-78
2023/02/01 17:03:46;;;;;;;;;3.67;2.33;;;;;25.73;37.31;102514.94;5069037;28;45455;-79
2023/02/01 17:06:16;;;;;;;;;2.67;2.33;;;;;25.76;36.80;102513.81;5069722;28;45401;-81
2023/02/01 17:08:45;;;;;;;;;2.67;2.33;;;;;25.80;36.92;102512.53;5075637;28;46086;-84
2023/02/01 17:11:12;;;;;;;;;3.00;3.00;;;;;25.83;36.95;102512.22;5072091;27;45432;-80
2023/02/01 17:13:40;;;;;;;;;4.00;3.00;;;;;25.86;36.71;102517.38;5068256;27;45617;-77
2023/02/01 17:16:19;;;;;;;;;4.33;2.33;;;;;25.90;36.73;102523.41;5083315;27;45512;-78
2023/02/01 17:18:59;;;;;;;;;3.00;2.33;;;;;25.92;36.71;102515.97;5050512;28;46315;-78
2023/02/01 17:21:26;;;;;;;;;4.00;2.33;;;;;25.94;36.79;102518.56;5070455;27;45937;-79
2023/02/01 17:23:52;;;;;;;;;4.67;3.00;;;;;25.96;36.35;102524.69;5072917;27;45752;-82
2023/02/01 17:26:18;;;;;;;;;6.00;5.00;;;;;25.97;36.50;102518.25;5075246;27;45892;-83
2023/02/01 17:28:43;;;;;;;;;5.67;3.67;;;;;25.97;36.50;102523.69;5062172;27;46844;-76
2023/02/01 17:31:13;;;;;;;;;5.00;5.00;;;;;25.95;36.41;102526.53;5073816;27;45475;-77
2023/02/01 17:33:39;;;;;;;;;6.00;4.00;;;;;25.97;36.50;102534.56;5053152;28;45547;-79
2023/02/01 17:36:05;;;;;;;;;2.67;2.67;;;;;25.97;36.67;102537.28;5037106;28;45460;-81
2023/02/01 17:38:33;;;;;;;;;6.67;5.33;;;;;25.97;36.60;102540.00;5071319;27;46227;-81
2023/02/01 17:40:58;;;;;;;;;3.67;3.67;;;;;25.97;36.40;102531.84;5057532;27;45561;-82
2023/02/01 17:43:25;;;;;;;;;14.67;10.33;;;;;25.96;36.31;102533.72;5064811;27;45499;-78
2023/02/01 17:46:25;;;;;;;;;13.33;9.33;;;;;25.94;36.39;102537.59;5056392;28;45837;-79
2023/02/01 17:48:54;;;;;;;;;10.33;9.33;;;;;25.92;36.46;102541.28;5057029;27;45392;-76
2023/02/01 17:51:22;;;;;;;;;9.33;9.33;;;;;25.95;36.24;102544.75;5064944;27;47165;-80
2023/02/01 17:53:48;;;;;;;;;7.33;7.33;;;;;25.95;36.59;102548.31;5062609;27;45383;-75
2023/02/01 17:56:15;;;;;;;;;8.67;7.67;;;;;25.95;35.98;102545.59;5068897;28;45620;-79
2023/02/01 17:58:41;;;;;;;;;8.67;7.00;;;;;26.00;36.60;102545.19;5070985;27;46396;-79
2023/02/01 18:01:20;;;;;;;;;10.33;8.67;;;;;26.05;36.63;102542.91;5071604;28;45542;-80
2023/02/01 18:03:46;;;;;;;;;10.33;10.33;;;;;26.07;36.41;102543.59;5066238;27;45563;-79
2023/02/01 18:06:17;;;;;;;;;6.67;6.67;;;;;26.12;35.97;102549.47;5063437;27;45905;-79
2023/02/01 18:08:43;;;;;;;;;10.00;8.00;;;;;26.17;36.02;102544.47;5068062;27;45575;-78
2023/02/01 18:11:15;;;;;;;;;7.00;7.00;;;;;26.20;36.29;102547.91;5072548;27;45462;-78
2023/02/01 18:13:41;;;;;;;;;8.00;8.00;;;;;26.21;35.88;102531.44;5073157;27;45371;-78
2023/02/01 18:16:16;;;;;;;;;8.67;7.67;;;;;26.23;36.57;102543.03;5058685;27;45334;-86
2023/02/01 18:18:42;;;;;;;;;8.00;7.67;;;;;26.22;36.32;102537.72;5071026;27;45561;-83
2023/02/01 18:21:08;;;;;;;;;7.33;7.33;;;;;26.22;36.11;102541.31;5068358;27;50411;-85
2023/02/01 18:23:33;;;;;;;;;7.67;7.67;;;;;26.22;35.68;102541.31;5063420;27;45477;-87
2023/02/01 18:25:59;;;;;;;;;11.33;10.00;;;;;26.21;35.88;102547.78;5078325;27;50740;-82
2023/02/01 18:28:24;;;;;;;;;12.67;9.00;;;;;26.24;36.30;102555.63;5071917;27;47043;-85
2023/02/01 18:30:50;;;;;;;;;9.33;8.33;;;;;26.24;35.81;102543.91;5056665;27;55384;-83
2023/02/01 18:33:17;;;;;;;;;11.00;8.00;;;;;26.23;36.03;102542.19;5060678;27;45554;-84
2023/02/01 18:35:43;;;;;;;;;8.00;6.00;;;;;26.21;35.83;102545.06;5071228;27;45459;-85
2023/02/01 18:38:09;;;;;;;;;7.33;7.33;;;;;26.20;35.58;102546.06;5065024;27;45372;-83
2023/02/01 18:40:39;;;;;;;;;10.00;8.00;;;;;26.19;35.85;102549.75;5078872;27;45445;-86
2023/02/01 18:43:04;;;;;;;;;10.00;10.00;;;;;26.18;35.38;102548.91;5068133;27;45497;-85
2023/02/01 18:45:39;;;;;;;;;7.33;6.67;;;;;26.14;35.26;102557.50;5056053;28;45565;-80
2023/02/01 18:48:06;;;;;;;;;6.67;6.67;;;;;26.08;35.67;102549.91;5058506;27;45435;-80
2023/02/01 18:50:35;;;;;;;;;7.00;6.00;;;;;26.01;35.66;102552.34;5071406;27;45471;-80
2023/02/01 18:53:02;;;;;;;;;6.33;5.00;;;;;25.95;35.22;102558.34;5068793;27;45459;-81
2023/02/01 18:55:31;;;;;;;;;6.33;6.33;;;;;25.93;35.49;102555.78;5063442;27;46727;-80
2023/02/01 18:58:00;;;;;;;;;7.67;7.33;;;;;25.91;35.09;102557.75;5069885;27;45961;-80
2023/02/01 19:00:27;;;;;;;;;5.33;5.00;;;;;25.87;35.36;102565.34;5070971;27;45478;-80
2023/02/01 19:02:53;;;;;;;;;6.33;5.00;;;;;25.82;34.92;102553.19;5064441;27;45410;-80
2023/02/01 19:05:19;;;;;;;;;7.67;4.33;;;;;25.81;35.13;102559.59;5060539;27;45420;-79
2023/02/01 19:07:45;;;;;;;;;7.00;7.00;;;;;25.77;35.19;102553.59;5063507;27;46160;-77
2023/02/01 19:10:21;;;;;;;;;7.67;5.33;;;;;25.75;35.36;102558.31;5058717;27;45495;-77
2023/02/01 19:12:47;;;;;;;;;6.33;6.33;;;;;25.70;35.15;102568.75;5065093;27;45466;-76
2023/02/01 19:15:14;;;;;;;;;7.00;5.67;;;;;25.67;35.05;102556.31;5065213;27;45416;-74
2023/02/01 19:17:44;;;;;;;;;5.00;4.67;;;;;25.65;34.98;102567.31;5066780;27;47054;-74
2023/02/01 19:20:13;;;;;;;;;4.67;4.67;;;;;25.64;34.65;102567.44;5066337;27;45510;-76
2023/02/01 19:22:39;;;;;;;;;4.33;3.00;;;;;25.67;34.84;102563.59;5068781;27;46188;-76
2023/02/01 19:25:06;;;;;;;;;7.67;6.00;;;;;25.68;34.69;102560.72;5073776;28;45368;-76
2023/02/01 19:27:31;;;;;;;;;9.00;4.67;;;;;25.69;34.98;102561.56;5060911;27;47382;-76
2023/02/01 19:29:56;;;;;;;;;6.67;5.33;;;;;25.69;34.79;102559.72;5074010;27;45496;-76
2023/02/01 19:32:22;;;;;;;;;5.00;4.00;;;;;25.67;34.70;102559.03;5071880;27;45490;-80
2023/02/01 19:34:47;;;;;;;;;7.00;5.67;;;;;25.63;34.79;102552.97;5074053;27;45820;-77
2023/02/01 19:37:12;;;;;;;;;1.67;1.67;;;;;25.59;34.64;102567.84;5065386;27;45515;-77
2023/02/01 19:39:39;;;;;;;;;3.00;3.00;;;;;25.58;34.35;102559.84;5069531;27;45491;-79
2023/02/01 19:42:06;;;;;;;;;5.00;5.00;;;;;25.56;34.54;102542.81;5071285;27;45942;-74
2023/02/01 19:44:32;;;;;;;;;7.00;5.67;;;;;25.57;34.80;102558.09;5057037;27;45495;-77
2023/02/01 19:46:57;;;;;;;;;5.00;4.00;;;;;25.53;34.57;102550.22;5066898;27;46870;-75
2023/02/01 19:49:22;;;;;;;;;8.67;5.00;;;;;25.57;34.52;102552.66;5070002;27;45511;-75
2023/02/01 19:51:48;;;;;;;;;6.00;4.33;;;;;25.59;35.00;102556.97;5062423;27;45419;-76
2023/02/01 19:54:14;;;;;;;;;5.33;4.00;;;;;25.62;34.79;102555.84;5085280;27;45456;-76
2023/02/01 19:56:40;;;;;;;;;7.00;4.00;;;;;25.64;34.88;102559.28;5071881;27;46104;-74
2023/02/01 19:59:06;;;;;;;;;4.67;4.67;;;;;25.68;34.61;102562.59;5064402;27;45614;-76
2023/02/01 20:01:32;;;;;;;;;5.33;5.33;;;;;25.72;34.77;102562.19;5067465;27;45534;-76
2023/02/01 20:04:01;;;;;;;;;6.33;4.00;;;;;25.76;34.42;102573.63;5060058;27;45753;-77
2023/02/01 20:06:31;;;;;;;;;4.00;4.00;;;;;25.77;34.64;102570.78;5068319;27;47185;-75
2023/02/01 20:08:57;;;;;;;;;3.67;3.33;;;;;25.78;34.72;102567.06;5068037;28;45721;-79
2023/02/01 20:11:25;;;;;;;;;5.00;2.00;;;;;25.82;34.54;102570.34;5050537;28;45483;-79
2023/02/01 20:13:54;;;;;;;;;7.00;5.33;;;;;25.83;34.72;102565.78;5071878;27;45391;-76
2023/02/01 20:16:20;;;;;;;;;5.33;5.00;;;;;25.86;34.71;102565.47;5074095;28;46473;-76
2023/02/01 20:18:46;;;;;;;;;10.00;6.00;;;;;25.84;34.48;102562.94;5075536;27;45470;-74
2023/02/01 20:21:12;;;;;;;;;7.33;6.00;;;;;25.86;34.63;102568.19;5074683;27;45570;-75
2023/02/01 20:23:38;;;;;;;;;6.33;5.00;;;;;25.85;34.78;102575.50;5080460;27;45473;-76
2023/02/01 20:26:05;;;;;;;;;3.33;2.67;;;;;25.85;34.84;102575.50;5075664;28;45431;-75
2023/02/01 20:28:30;;;;;;;;;5.00;5.00;;;;;25.86;34.54;102579.06;5072706;27;45423;-78
2023/02/01 20:30:57;;;;;;;;;8.00;5.33;;;;;25.89;35.00;102586.97;5075889;27;45427;-77
2023/02/01 20:33:22;;;;;;;;;4.00;4.00;;;;;25.91;34.37;102588.53;5075874;28;45377;-79
2023/02/01 20:35:47;;;;;;;;;6.00;5.33;;;;;25.93;34.45;102582.97;5075851;28;45387;-78
2023/02/01 20:38:13;;;;;;;;;4.67;4.67;;;;;25.91;34.57;102577.66;5067205;28;49524;-79
2023/02/01 20:40:39;;;;;;;;;3.00;3.00;;;;;25.94;35.02;102586.56;5072180;28;45612;-77
2023/02/01 20:43:04;;;;;;;;;5.67;5.67;;;;;25.92;34.74;102581.25;5068696;28;45429;-79
2023/02/01 20:45:29;;;;;;;;;6.33;5.00;;;;;25.94;34.76;102581.97;5074422;27;46136;-70
2023/02/01 20:47:55;;;;;;;;;6.67;5.00;;;;;25.95;34.69;102588.28;5064337;27;45571;-72
2023/02/01 20:50:20;;;;;;;;;6.00;5.00;;;;;25.90;34.50;102581.41;5074709;28;47568;-78
2023/02/01 20:52:46;;;;;;;;;3.00;3.00;;;;;25.94;35.01;102586.56;5065274;27;45651;-76
2023/02/01 20:55:11;;;;;;;;;4.00;4.00;;;;;25.95;34.83;102580.97;5074652;27;46026;-82
2023/02/01 20:57:36;;;;;;;;;4.00;4.00;;;;;25.96;34.63;102582.69;5076973;27;45450;-82
2023/02/01 21:00:06;;;;;;;;;5.67;5.67;;;;;25.98;35.07;102587.97;5069788;27;45496;-75
2023/02/01 21:02:32;;;;;;;;;5.67;4.00;;;;;25.98;34.63;102590.69;5076320;27;45446;-75
2023/02/01 21:04:57;;;;;;;;;6.00;5.00;;;;;25.98;34.67;102585.25;5056422;28;48862;-74
2023/02/01 21:07:22;;;;;;;;;5.00;5.00;;;;;25.99;35.08;102589.72;5075726;27;45476;-77
2023/02/01 21:09:48;;;;;;;;;5.00;5.00;;;;;26.03;34.55;102588.41;5076024;27;45477;-76
2023/02/01 21:12:13;;;;;;;;;6.00;5.00;;;;;26.05;34.88;102587.28;5071097;28;45451;-78
2023/02/01 21:14:38;;;;;;;;;6.00;4.00;;;;;26.07;34.84;102589.84;5070881;28;45596;-78
2023/02/01 21:17:04;;;;;;;;;6.00;5.00;;;;;26.10;35.06;102589.59;5074453;28;45417;-76
2023/02/01 21:19:41;;;;;;;;;5.33;5.33;;;;;26.09;34.93;102582.44;5076039;27;45706;-76
2023/02/01 21:22:07;;;;;;;;;7.33;5.00;;;;;26.12;34.88;102593.00;5069358;27;45412;-75
2023/02/01 21:24:32;;;;;;;;;4.00;4.00;;;;;26.13;34.81;102589.31;5064126;28;46035;-74
2023/02/01 21:26:57;;;;;;;;;3.67;3.67;;;;;26.14;35.05;102595.59;5054381;28;49574;-74
2023/02/01 21:29:22;;;;;;;;;5.00;5.00;;;;;26.14;34.46;102598.31;5074201;28;45441;-80
2023/02/01 21:31:48;;;;;;;;;7.67;4.33;;;;;26.18;34.61;102602.47;5070809;28;45527;-79
2023/02/01 21:34:13;;;;;;;;;5.00;5.00;;;;;26.18;34.81;102597.91;5070554;27;47155;-79
2023/02/01 21:36:38;;;;;;;;;4.33;3.00;;;;;26.21;34.96;102596.75;5075108;28;45635;-84
2023/02/01 21:39:06;;;;;;;;;2.67;2.67;;;;;26.23;35.06;102597.47;5062463;28;45754;-79
2023/02/01 21:44:18;;;;;;;;;4.00;4.00;;;;;26.23;34.94;102602.91;5076214;27;45795;-75
2023/02/01 21:46:44;;;;;;;;;6.67;3.33;;;;;26.22;34.35;102586.72;5068521;27;45443;-76
2023/02/01 21:49:10;;;;;;;;;4.00;3.00;;;;;26.24;34.92;102590.16;5074265;28;45378;-76
2023/02/01 21:51:38;;;;;;;;;3.33;3.33;;;;;26.24;34.88;102595.63;5080953;27;45724;-76
